Terminal Aerodrome Forecast
Issued by NWS Des Moines, IA

Home | Current Version | Previous Version | Text Only | Print | Product List | Glossary On
Versions: 1 2 3 4 5 6 7 8 9 10 11 12 13 14 15 16 17 18 19 20 21 22 23 24 25 26 27 28 29 30 31 32 33 34 35 36 37 38 39 40 41
000
FTUS43 KDMX 260520
TAFDSM
TAF
KDSM 260520Z 2606/2706 14008KT P6SM SCT030 OVC080
     FM260900 12009KT 3SM -SN BKN012 OVC020
      TEMPO 2610/2613 1SM -SN OVC010
     FM261800 33010KT P6SM VCSH OVC020
     FM262100 01015G22KT P6SM OVC025
     FM270500 33014G22KT P6SM BKN030=

USA.gov is the U.S. government's official web portal to all federal, state and local government web resources and services.